createdAt,value
2023-01-11T00:03:23.027Z,100186.69
2023-01-11T00:08:25.723Z,100178.19
2023-01-11T00:13:27.129Z,100169.25
2023-01-11T00:18:28.546Z,100155.94
2023-01-11T00:23:29.944Z,100140.38
2023-01-11T00:28:31.338Z,100120.28
2023-01-11T00:33:32.720Z,100107.69
2023-01-11T00:38:53.890Z,100097.25
2023-01-11T00:44:13.896Z,100082.25
2023-01-11T00:49:15.410Z,100099.34
2023-01-11T00:54:17.132Z,100098.44
2023-01-11T00:59:18.701Z,100085.47
2023-01-11T01:04:20.093Z,100077.28
2023-01-11T01:09:21.519Z,100068.59
2023-01-11T01:14:29.676Z,100060.97
2023-01-11T01:19:31.256Z,100057.19
2023-01-11T01:24:33.790Z,100056.47
2023-01-11T01:29:35.184Z,100039.84
2023-01-11T01:34:37.495Z,100021.91
2023-01-11T01:39:38.909Z,100017.34
2023-01-11T01:44:57.045Z,100022.97
2023-01-11T01:49:59.143Z,100021.56
2023-01-11T01:55:02.283Z,100028.91
2023-01-11T02:00:06.165Z,100015.13
2023-01-11T02:05:08.075Z,99998.72
2023-01-11T02:10:14.235Z,99992.06
2023-01-11T02:15:16.032Z,99988.97
2023-01-11T02:20:35.239Z,99977.81
2023-01-11T02:25:50.076Z,99984.34
2023-01-11T02:31:07.937Z,99971.25
2023-01-11T02:36:12.958Z,99975.56
2023-01-11T02:41:25.265Z,99959.41
2023-01-11T02:46:29.607Z,99954.78
2023-01-11T02:51:43.265Z,99946.44
2023-01-11T02:56:45.578Z,99934.09
2023-01-11T03:01:48.334Z,99935.06
2023-01-11T03:06:49.825Z,99932.69
2023-01-11T03:12:33.411Z,99929.78
2023-01-11T03:17:43.820Z,99919.94
2023-01-11T03:23:00.235Z,99911.41
2023-01-11T03:28:26.985Z,99886.72
2023-01-11T03:33:38.695Z,99877.28
2023-01-11T03:38:44.080Z,99862.78
2023-01-11T03:43:46.122Z,99865.50
2023-01-11T03:48:52.889Z,99859.97
2023-01-11T03:53:58.795Z,99867.00
2023-01-11T03:59:00.669Z,99856.41
2023-01-11T04:04:02.060Z,99849.38
2023-01-11T04:09:06.125Z,99846.88
2023-01-11T04:14:07.526Z,99845.25
2023-01-11T04:19:08.950Z,99839.78
2023-01-11T04:24:10.693Z,99823.94
2023-01-11T04:29:12.112Z,99827.03
2023-01-11T04:34:13.551Z,99834.63
2023-01-11T04:39:14.951Z,99825.28
2023-01-11T04:44:16.336Z,99819.81
2023-01-11T04:49:17.757Z,99812.25
2023-01-11T04:54:19.193Z,99805.38
2023-01-11T04:59:20.562Z,99796.28
2023-01-11T05:04:22.003Z,99785.91
2023-01-11T05:09:23.386Z,99793.88
2023-01-11T05:14:24.802Z,99798.28
2023-01-11T05:19:26.191Z,99789.00
2023-01-11T05:24:27.558Z,99792.22
2023-01-11T05:29:28.967Z,99792.47
2023-01-11T05:34:30.393Z,99796.47
2023-01-11T05:39:31.819Z,99791.00
2023-01-11T05:44:51.417Z,99777.50
2023-01-11T05:49:52.799Z,99763.56
2023-01-11T05:54:54.256Z,99763.81
2023-01-11T05:59:55.653Z,99763.06
2023-01-11T06:04:57.038Z,99765.56
2023-01-11T06:09:58.437Z,99773.09
2023-01-11T06:14:59.831Z,99759.69
2023-01-11T06:20:01.261Z,99756.53
2023-01-11T06:25:02.652Z,99761.72
2023-01-11T06:30:04.381Z,99760.31
2023-01-11T06:35:07.469Z,99753.66
2023-01-11T06:40:09.602Z,99749.31
2023-01-11T06:45:11.575Z,99744.75
2023-01-11T06:50:12.991Z,99734.41
2023-01-11T06:55:14.425Z,99739.28
2023-01-11T07:00:16.551Z,99738.66
2023-01-11T07:05:19.382Z,99743.53
2023-01-11T07:10:21.073Z,99746.09
2023-01-11T07:15:22.457Z,99748.31
2023-01-11T07:20:24.139Z,99757.53
2023-01-11T07:25:28.930Z,99760.25
2023-01-11T07:30:31.212Z,99757.69
2023-01-11T07:35:32.625Z,99742.47
2023-01-11T07:40:36.285Z,99738.72
2023-01-11T07:45:45.941Z,99741.97
2023-01-11T07:50:47.816Z,99742.19
2023-01-11T07:55:49.297Z,99742.13
2023-01-11T08:00:50.690Z,99742.19
2023-01-11T08:05:52.331Z,99746.09
2023-01-11T08:11:12.430Z,99737.66
2023-01-11T08:16:13.887Z,99747.38
2023-01-11T08:21:15.729Z,99743.28
2023-01-11T08:26:17.849Z,99756.41
2023-01-11T08:31:19.385Z,99758.94
2023-01-11T08:36:20.778Z,99749.91
2023-01-11T08:41:22.815Z,99748.50
2023-01-11T08:46:24.273Z,99735.53
2023-01-11T08:51:25.731Z,99728.22
2023-01-11T08:56:27.152Z,99730.19
2023-01-11T09:01:28.542Z,99721.34
2023-01-11T09:06:29.931Z,99730.19
2023-01-11T09:11:50.028Z,99719.78
2023-01-11T09:16:51.967Z,99726.97
2023-01-11T09:21:56.723Z,99711.28
2023-01-11T09:26:59.259Z,99723.44
2023-01-11T09:32:00.689Z,99722.84
2023-01-11T09:37:04.490Z,99714.16
2023-01-11T09:42:17.416Z,99705.44
2023-01-11T09:47:31.731Z,99697.88
2023-01-11T09:52:39.893Z,99689.53
2023-01-11T09:58:05.888Z,99696.44
2023-01-11T10:03:25.823Z,99692.59
2023-01-11T10:18:37.852Z,99670.72
2023-01-11T10:19:59.067Z,99660.06
2023-01-11T10:25:11.536Z,99654.31
2023-01-11T10:30:41.953Z,99653.03
2023-01-11T10:36:05.737Z,99650.28
2023-01-11T10:41:20.034Z,99647.81
2023-01-11T10:46:22.060Z,99644.50
2023-01-11T10:51:37.123Z,99643.97
2023-01-11T10:57:18.027Z,99639.16
2023-01-11T11:02:48.079Z,99627.28
2023-01-11T11:07:59.441Z,99627.66
2023-01-11T11:13:10.831Z,99621.94
2023-01-11T11:18:12.315Z,99619.81
2023-01-11T11:23:15.115Z,99615.50
2023-01-11T11:28:22.566Z,99606.44
2023-01-11T11:33:27.773Z,99607.06
2023-01-11T11:38:32.561Z,99606.88
2023-01-11T11:43:40.645Z,99593.13
2023-01-11T11:48:42.762Z,99590.16
2023-01-11T11:53:55.622Z,99584.44
2023-01-11T11:58:57.755Z,99574.84
2023-01-11T12:04:03.686Z,99569.13
2023-01-11T12:09:05.119Z,99561.78
2023-01-11T12:14:16.706Z,99560.38
2023-01-11T12:19:25.057Z,99549.66
2023-01-11T12:24:28.236Z,99546.44
2023-01-11T12:30:08.116Z,99542.31
2023-01-11T12:35:21.402Z,99539.53
2023-01-11T12:40:34.301Z,99535.84
2023-01-11T12:45:42.199Z,99517.69
2023-01-11T12:51:05.843Z,99518.75
2023-01-11T12:56:26.812Z,99519.44
2023-01-11T13:01:47.036Z,99509.56
2023-01-11T13:07:24.629Z,99508.69
2023-01-11T13:12:54.730Z,99507.97
2023-01-11T13:18:06.325Z,99505.13
2023-01-11T13:23:21.666Z,99501.59
2023-01-11T13:28:32.820Z,99511.00
2023-01-11T13:33:34.280Z,99513.72
2023-01-11T13:39:03.188Z,99516.94
2023-01-11T13:44:24.919Z,99519.22
2023-01-11T13:49:50.160Z,99525.50
2023-01-11T13:55:05.635Z,99520.81
2023-01-11T14:00:38.945Z,99521.13
2023-01-11T14:06:02.510Z,99526.22
2023-01-11T14:11:21.093Z,99524.59
2023-01-11T14:17:19.590Z,99526.59
2023-01-11T14:22:39.333Z,99532.91
2023-01-11T14:28:05.091Z,99544.06
2023-01-11T14:33:34.887Z,99543.66
2023-01-11T14:38:54.952Z,99538.09
2023-01-11T14:44:23.715Z,99536.25
2023-01-11T14:49:33.287Z,99536.28
2023-01-11T14:54:39.111Z,99528.25
2023-01-11T14:59:40.658Z,99535.66
2023-01-11T15:04:57.012Z,99540.09
2023-01-11T15:10:04.304Z,99544.38
2023-01-11T15:15:07.214Z,99555.06
2023-01-11T15:20:13.849Z,99545.03
2023-01-11T15:25:28.119Z,99549.66
2023-01-11T15:30:29.694Z,99561.63
2023-01-11T15:35:34.747Z,99566.56
2023-01-11T15:40:39.558Z,99564.19
2023-01-11T15:46:04.034Z,99573.31
2023-01-11T15:51:44.422Z,99569.44
2023-01-11T15:57:01.711Z,99567.44
2023-01-11T16:02:15.571Z,99570.56
2023-01-11T16:07:40.596Z,99580.72
2023-01-11T16:13:06.337Z,99574.66
2023-01-11T16:18:13.117Z,99578.94
2023-01-11T16:23:18.553Z,99589.88
2023-01-11T16:28:20.010Z,99589.63
2023-01-11T16:33:23.362Z,99591.50
2023-01-11T16:38:25.659Z,99598.91
2023-01-11T16:43:29.311Z,99604.09
2023-01-11T16:48:30.691Z,99613.56
2023-01-11T16:53:32.920Z,99617.19
2023-01-11T16:58:38.076Z,99618.59
2023-01-11T17:03:42.617Z,99608.31
2023-01-11T17:08:56.276Z,99607.00
2023-01-11T17:14:24.234Z,99622.16
2023-01-11T17:19:33.743Z,99637.16
2023-01-11T17:24:39.705Z,99637.22
2023-01-11T17:29:41.134Z,99644.03
2023-01-11T17:34:42.518Z,99644.59
2023-01-11T17:39:48.261Z,99648.09
2023-01-11T17:45:08.157Z,99675.28
2023-01-11T17:50:28.132Z,99664.56
2023-01-11T17:55:29.601Z,99680.75
2023-01-11T18:00:30.995Z,99679.63
2023-01-11T18:05:32.364Z,99688.94
2023-01-11T18:10:33.940Z,99690.28
2023-01-11T18:15:36.591Z,99685.94
2023-01-11T18:20:38.990Z,99696.88
2023-01-11T18:25:40.391Z,99695.25
2023-01-11T18:30:43.500Z,99696.38
2023-01-11T18:35:47.337Z,99711.72
2023-01-11T18:40:49.315Z,99708.66
2023-01-11T18:45:50.730Z,99712.47
2023-01-11T18:50:54.321Z,99726.13
2023-01-11T18:55:55.689Z,99726.72
2023-01-11T19:00:57.089Z,99722.09
2023-01-11T19:05:58.476Z,99720.44
2023-01-11T19:11:01.666Z,99719.09
2023-01-11T19:16:03.117Z,99738.56
2023-01-11T19:21:06.519Z,99737.06
2023-01-11T19:26:07.881Z,99757.38
2023-01-11T19:31:11.115Z,99767.16
2023-01-11T19:36:12.558Z,99780.66
2023-01-11T19:41:16.470Z,99787.97
2023-01-11T19:46:30.614Z,99792.63
2023-01-11T19:51:33.164Z,99793.13
2023-01-11T19:56:34.548Z,99799.75
2023-01-11T20:01:35.971Z,99806.06
2023-01-11T20:06:39.630Z,99803.66
2023-01-11T20:11:41.078Z,99826.03
2023-01-11T20:16:42.546Z,99831.75
2023-01-11T20:21:44.060Z,99843.53
2023-01-11T20:26:46.433Z,99841.28
2023-01-11T20:31:49.257Z,99843.03
2023-01-11T20:36:51.414Z,99841.63
2023-01-11T20:41:53.820Z,99843.84
2023-01-11T20:46:55.803Z,99856.69
2023-01-11T20:51:58.473Z,99858.28
2023-01-11T20:57:05.169Z,99857.44
2023-01-11T21:02:07.437Z,99856.38
2023-01-11T21:07:08.896Z,99849.16
2023-01-11T21:12:10.298Z,99853.91
2023-01-11T21:17:11.694Z,99869.81
2023-01-11T21:22:13.103Z,99871.13
2023-01-11T21:27:14.651Z,99880.44
2023-01-11T21:32:16.058Z,99875.28
2023-01-11T21:37:19.652Z,99881.81
2023-01-11T21:42:21.039Z,99882.91
2023-01-11T21:47:22.423Z,99898.97
2023-01-11T21:52:23.810Z,99910.03
2023-01-11T21:57:25.215Z,99904.78
2023-01-11T22:02:26.598Z,99908.00
2023-01-11T22:07:32.167Z,99911.59
2023-01-11T22:12:33.678Z,99914.00
2023-01-11T22:17:35.056Z,99915.16
2023-01-11T22:22:36.520Z,99922.03
2023-01-11T22:27:37.951Z,99922.59
2023-01-11T22:32:40.123Z,99933.47
2023-01-11T22:37:41.530Z,99925.59
2023-01-11T22:42:42.905Z,99932.97
2023-01-11T22:47:44.282Z,99930.50
2023-01-11T22:52:46.146Z,99934.03
2023-01-11T22:57:47.541Z,99926.59
2023-01-11T23:02:48.996Z,99926.09
2023-01-11T23:07:50.391Z,99934.03
2023-01-11T23:13:10.191Z,99933.97
2023-01-11T23:18:12.025Z,99921.69
2023-01-11T23:23:13.589Z,99914.88
2023-01-11T23:28:14.965Z,99935.72
2023-01-11T23:33:16.352Z,99927.00
2023-01-11T23:38:17.721Z,99933.97
2023-01-11T23:43:19.101Z,99942.44
2023-01-11T23:48:20.506Z,99923.59
2023-01-11T23:53:23.226Z,99926.59
2023-01-11T23:58:24.843Z,99931.00
